Villa del Monte, Puerto Rico
Current Conditions -  °F | °C
As of 8:56 PM on Saturday 27 Dec 2014 (Local Time) from TJSJ Reporting Station
Broken Clouds Broken Clouds  
Wind Chill: 76°   Ceiling: 5000
Heat Index: 76°   Visibility: 10mi
Dew Point: 72°   Wind: 0mph
Humidity: 87%   Direction: NA
Pressure: 30.1"   Gusts: NA
Location:  18.3893°N, 66.2481°W
Report Text: TJSJ 280056Z 00000KT 10SM FEW024 BKN050 24/22 A3010 RMK AO2 RAB16E31 SLP193 P0000 T02440222
Loading
Personal Weather Stations






























Interactive Weather Map New forecast layout! Learn more

10-Day Weather Forecast

Advertisements
Track Severe Weather on mobile